createdAt,value
2017-06-01T00:00:13.651Z,1021.98
2017-06-01T00:00:54.117Z,1022.04
2017-06-01T00:01:34.609Z,1021.98
2017-06-01T00:02:15.095Z,1022.01
2017-06-01T00:02:55.569Z,1021.99
2017-06-01T00:03:36.066Z,1022
2017-06-01T00:04:16.545Z,1022.03
2017-06-01T00:04:57.042Z,1021.98
2017-06-01T00:05:37.533Z,1021.98
2017-06-01T00:06:18.028Z,1021.98
2017-06-01T00:06:58.520Z,1021.98
2017-06-01T00:07:38.982Z,1022.04
2017-06-01T00:08:19.468Z,1022
2017-06-01T00:08:59.960Z,1022.03
2017-06-01T00:09:40.477Z,1022.01
2017-06-01T00:10:20.943Z,1021.96
2017-06-01T00:11:01.494Z,1021.93
2017-06-01T00:11:41.925Z,1021.98
2017-06-01T00:12:22.395Z,1022
2017-06-01T00:13:02.920Z,1021.98
2017-06-01T00:13:43.390Z,1021.98
2017-06-01T00:14:23.860Z,1021.97
2017-06-01T00:15:04.353Z,1021.98
2017-06-01T00:15:44.835Z,1022
2017-06-01T00:16:25.308Z,1021.86
2017-06-01T00:17:05.788Z,1021.96
2017-06-01T00:17:46.268Z,1021.97
2017-06-01T00:18:26.779Z,1021.96
2017-06-01T00:19:07.275Z,1021.97
2017-06-01T00:19:47.759Z,1021.97
2017-06-01T00:20:28.231Z,1021.94
2017-06-01T00:21:08.728Z,1021.99
2017-06-01T00:21:49.192Z,1021.97
2017-06-01T00:22:29.718Z,1021.95
2017-06-01T00:23:10.154Z,1021.94
2017-06-01T00:23:50.701Z,1021.99
2017-06-01T00:24:31.180Z,1022.01
2017-06-01T00:25:11.701Z,1022.01
2017-06-01T00:25:52.179Z,1021.98
2017-06-01T00:26:32.657Z,1021.96
2017-06-01T00:27:13.137Z,1022.01
2017-06-01T00:27:53.665Z,1021.95
2017-06-01T00:28:34.146Z,1022.03
2017-06-01T00:29:14.645Z,1021.99
2017-06-01T00:29:55.106Z,1021.95
2017-06-01T00:30:35.592Z,1022.05
2017-06-01T00:31:16.103Z,1021.97
2017-06-01T00:31:56.554Z,1022.02
2017-06-01T00:32:37.088Z,1021.97
2017-06-01T00:33:17.581Z,1021.97
2017-06-01T00:33:58.057Z,1021.98
2017-06-01T00:34:38.545Z,1022
2017-06-01T00:35:19.049Z,1021.94
2017-06-01T00:35:59.584Z,1022
2017-06-01T00:36:40.065Z,1021.97
2017-06-01T00:37:20.564Z,1022.02
2017-06-01T00:38:01.051Z,1021.97
2017-06-01T00:38:41.509Z,1022.05
2017-06-01T00:39:21.984Z,1022.02
2017-06-01T00:40:02.529Z,1022.07
2017-06-01T00:40:42.974Z,1022.02
2017-06-01T00:41:23.476Z,1022.04
2017-06-01T00:42:03.946Z,1022.06
2017-06-01T00:42:44.476Z,1022.07
2017-06-01T00:43:24.973Z,1022.04
2017-06-01T00:44:05.505Z,1022.03
2017-06-01T00:44:45.961Z,1022.05
2017-06-01T00:45:26.506Z,1022.02
2017-06-01T00:46:06.975Z,1021.96
2017-06-01T00:46:47.454Z,1021.98
2017-06-01T00:47:27.966Z,1021.97
2017-06-01T00:48:08.434Z,1021.99
2017-06-01T00:48:48.902Z,1022.04
2017-06-01T00:49:29.365Z,1022.04
2017-06-01T00:50:09.840Z,1022.02
2017-06-01T00:50:50.339Z,1021.97
2017-06-01T00:51:30.849Z,1022.01
2017-06-01T00:52:11.333Z,1021.96
2017-06-01T00:52:51.820Z,1021.98
2017-06-01T00:53:32.342Z,1021.97
2017-06-01T00:54:12.840Z,1021.95
2017-06-01T00:54:53.312Z,1021.95
2017-06-01T00:55:33.804Z,1021.94
2017-06-01T00:56:14.284Z,1021.94
2017-06-01T00:56:54.755Z,1021.91
2017-06-01T00:57:35.238Z,1021.93
2017-06-01T00:58:15.730Z,1021.87
2017-06-01T00:58:56.209Z,1021.93
2017-06-01T00:59:36.662Z,1021.96
2017-06-01T01:00:17.161Z,1021.86
2017-06-01T01:00:57.620Z,1021.89
2017-06-01T01:01:38.099Z,1021.89
2017-06-01T01:02:18.600Z,1021.95
2017-06-01T01:02:59.067Z,1021.94
2017-06-01T01:03:39.534Z,1021.89
2017-06-01T01:04:20.024Z,1021.91
2017-06-01T01:05:00.527Z,1021.89
2017-06-01T01:05:40.997Z,1021.95
2017-06-01T01:06:21.521Z,1021.9
2017-06-01T01:07:02.027Z,1021.94
2017-06-01T01:07:42.474Z,1021.96
2017-06-01T01:08:22.987Z,1021.94
2017-06-01T01:09:03.456Z,1021.92
2017-06-01T01:09:43.895Z,1021.9
2017-06-01T01:10:24.405Z,1021.88
2017-06-01T01:11:04.891Z,1021.91
2017-06-01T01:11:45.386Z,1021.92
2017-06-01T01:12:25.872Z,1022.06
2017-06-01T01:13:06.360Z,1021.94
2017-06-01T01:13:46.879Z,1021.93
2017-06-01T01:14:27.358Z,1021.93
2017-06-01T01:15:07.871Z,1022
2017-06-01T01:17:05.970Z,1021.9
2017-06-01T01:17:46.509Z,1021.92
2017-06-01T01:18:26.978Z,1021.88
2017-06-01T01:19:07.458Z,1021.9
2017-06-01T01:19:47.943Z,1021.91
2017-06-01T01:20:28.407Z,1021.95
2017-06-01T01:21:08.920Z,1021.93
2017-06-01T01:21:49.375Z,1021.9
2017-06-01T01:22:29.850Z,1021.91
2017-06-01T01:23:10.340Z,1021.99
2017-06-01T01:23:50.794Z,1021.93
2017-06-01T01:24:31.344Z,1021.96
2017-06-01T01:25:11.832Z,1021.92
2017-06-01T01:25:52.302Z,1021.87
2017-06-01T01:26:32.797Z,1021.91
2017-06-01T01:27:13.301Z,1021.91
2017-06-01T01:27:53.753Z,1021.88
2017-06-01T01:28:34.331Z,1021.84
2017-06-01T01:29:14.822Z,1021.88
2017-06-01T01:29:55.286Z,1021.92
2017-06-01T01:30:35.755Z,1021.86
2017-06-01T01:31:16.213Z,1021.84
2017-06-01T01:31:56.732Z,1021.86
2017-06-01T01:32:37.187Z,1021.84
2017-06-01T01:33:17.653Z,1021.76
2017-06-01T01:33:58.134Z,1021.76
2017-06-01T01:34:38.622Z,1021.81
2017-06-01T01:35:19.124Z,1021.81
2017-06-01T01:35:59.609Z,1021.78
2017-06-01T01:36:40.090Z,1021.75
2017-06-01T01:37:20.592Z,1021.84
2017-06-01T01:38:01.067Z,1021.73
2017-06-01T01:38:41.594Z,1021.82
2017-06-01T01:39:22.051Z,1021.79
2017-06-01T01:40:02.744Z,1021.72
2017-06-01T01:40:43.259Z,1021.76
2017-06-01T01:41:23.753Z,1021.72
2017-06-01T01:42:04.219Z,1021.76
2017-06-01T01:42:44.709Z,1021.77
2017-06-01T01:43:25.185Z,1021.74
2017-06-01T01:44:05.659Z,1021.75
2017-06-01T01:44:46.127Z,1021.76
2017-06-01T01:45:26.601Z,1021.78
2017-06-01T01:46:07.072Z,1021.75
2017-06-01T01:46:47.567Z,1021.73
2017-06-01T01:47:28.019Z,1021.74
2017-06-01T01:48:08.529Z,1021.76
2017-06-01T01:48:49.011Z,1021.95
2017-06-01T01:49:29.493Z,1021.89
2017-06-01T01:50:10.005Z,1021.81
2017-06-01T01:50:50.448Z,1021.87
2017-06-01T01:51:30.957Z,1021.93
2017-06-01T01:52:11.521Z,1021.88
2017-06-01T01:52:51.994Z,1021.86
2017-06-01T01:53:32.468Z,1021.89
2017-06-01T01:54:12.959Z,1021.93
2017-06-01T01:54:53.437Z,1021.88
2017-06-01T01:55:33.932Z,1021.92
2017-06-01T01:56:14.424Z,1021.87
2017-06-01T01:56:54.943Z,1021.86
2017-06-01T01:57:35.390Z,1021.85
2017-06-01T01:58:15.880Z,1021.96
2017-06-01T01:58:56.345Z,1021.9
2017-06-01T01:59:36.852Z,1021.93
2017-06-01T02:00:17.328Z,1021.85
2017-06-01T02:00:57.882Z,1021.92
2017-06-01T02:01:38.320Z,1021.96
2017-06-01T02:02:18.822Z,1021.89
2017-06-01T02:02:59.277Z,1021.91
2017-06-01T02:03:39.747Z,1021.95
2017-06-01T02:04:20.216Z,1021.92
2017-06-01T02:05:00.713Z,1021.95
2017-06-01T02:05:41.204Z,1021.95
2017-06-01T02:06:21.636Z,1021.94
2017-06-01T02:07:02.119Z,1021.9
2017-06-01T02:07:42.618Z,1021.89
2017-06-01T02:08:23.078Z,1022.06
2017-06-01T02:09:03.562Z,1022.04
2017-06-01T02:09:44.072Z,1021.91
2017-06-01T02:10:24.517Z,1021.93
2017-06-01T02:11:04.995Z,1021.91
2017-06-01T02:11:45.494Z,1021.84
2017-06-01T02:12:25.964Z,1022.02
2017-06-01T02:13:06.460Z,1021.93
2017-06-01T02:13:46.931Z,1021.93
2017-06-01T02:14:27.404Z,1021.94
2017-06-01T02:15:07.903Z,1021.91
2017-06-01T02:15:48.363Z,1022.06
2017-06-01T02:16:28.856Z,1021.89
2017-06-01T02:17:09.306Z,1021.9
2017-06-01T02:17:49.760Z,1021.88
2017-06-01T02:18:30.284Z,1021.86
2017-06-01T02:19:10.759Z,1021.88
2017-06-01T02:19:51.234Z,1021.93
2017-06-01T02:20:31.704Z,1021.89
2017-06-01T02:21:12.192Z,1021.94
2017-06-01T02:21:52.641Z,1021.88
2017-06-01T02:22:33.127Z,1021.92
2017-06-01T02:23:13.602Z,1021.89
2017-06-01T02:23:54.076Z,1021.83
2017-06-01T02:24:34.555Z,1021.92
2017-06-01T02:25:15.046Z,1021.84
2017-06-01T02:25:55.546Z,1021.84
2017-06-01T02:26:36.036Z,1021.88
2017-06-01T02:27:16.537Z,1021.84
2017-06-01T02:27:57.026Z,1021.87
2017-06-01T02:28:37.531Z,1021.92
2017-06-01T02:29:17.993Z,1021.88
2017-06-01T02:29:58.474Z,1021.9
2017-06-01T02:30:38.964Z,1021.85
2017-06-01T02:31:19.437Z,1021.88
2017-06-01T02:31:59.925Z,1021.83
2017-06-01T02:32:40.364Z,1021.83
2017-06-01T02:33:20.866Z,1021.88
2017-06-01T02:34:01.359Z,1021.78
2017-06-01T02:34:41.863Z,1021.86
2017-06-01T02:35:22.350Z,1021.98
2017-06-01T02:36:02.878Z,1021.89
2017-06-01T02:36:43.314Z,1021.88
2017-06-01T02:37:23.836Z,1021.86
2017-06-01T02:38:04.332Z,1021.86
2017-06-01T02:38:44.806Z,1021.94
2017-06-01T02:39:25.310Z,1021.85
2017-06-01T02:40:05.783Z,1021.96
2017-06-01T02:40:46.239Z,1022.01
2017-06-01T02:41:26.772Z,1021.98
2017-06-01T02:42:07.275Z,1021.88
2017-06-01T02:42:47.750Z,1021.93
2017-06-01T02:43:28.236Z,1021.86
2017-06-01T02:44:08.736Z,1021.87
2017-06-01T02:44:49.194Z,1021.92
2017-06-01T02:45:29.657Z,1021.93
2017-06-01T02:46:10.147Z,1021.98
2017-06-01T02:46:50.648Z,1021.9
2017-06-01T02:47:31.125Z,1021.98
2017-06-01T02:48:11.689Z,1021.95
2017-06-01T02:48:52.174Z,1021.93
2017-06-01T02:49:32.662Z,1021.91
2017-06-01T02:50:13.149Z,1021.98
2017-06-01T02:50:53.618Z,1021.91
2017-06-01T02:51:34.093Z,1021.9
2017-06-01T02:52:14.584Z,1021.97
2017-06-01T02:52:55.041Z,1021.93
2017-06-01T02:53:35.540Z,1022
2017-06-01T02:54:16.043Z,1021.9
2017-06-01T02:54:56.545Z,1021.91
2017-06-01T02:55:37.054Z,1021.97
2017-06-01T02:56:17.528Z,1021.92
2017-06-01T02:56:58.044Z,1021.9
2017-06-01T02:57:38.563Z,1021.9
2017-06-01T02:58:19.033Z,1021.9
2017-06-01T02:58:59.513Z,1021.92
2017-06-01T02:59:40.003Z,1021.91
2017-06-01T03:00:20.458Z,1021.84
2017-06-01T03:01:00.917Z,1021.85
2017-06-01T03:01:41.396Z,1021.92
2017-06-01T03:02:21.887Z,1021.86
2017-06-01T03:03:02.371Z,1021.89
2017-06-01T03:03:42.815Z,1021.95
2017-06-01T03:04:23.363Z,1021.88
2017-06-01T03:05:03.850Z,1021.86
2017-06-01T03:05:44.301Z,1021.87
2017-06-01T03:06:24.827Z,1021.92
2017-06-01T03:07:05.280Z,1021.88
2017-06-01T03:07:45.792Z,1021.9
2017-06-01T03:08:26.311Z,1021.92
2017-06-01T03:09:06.748Z,1021.9
2017-06-01T03:09:47.225Z,1021.93
2017-06-01T03:10:27.714Z,1022
2017-06-01T03:11:08.197Z,1022.01
2017-06-01T03:11:48.676Z,1021.93
2017-06-01T03:12:29.166Z,1021.96
2017-06-01T03:13:09.649Z,1022
2017-06-01T03:13:50.141Z,1021.93
2017-06-01T03:14:30.669Z,1022
2017-06-01T03:15:11.121Z,1021.94
2017-06-01T03:15:51.598Z,1021.92
2017-06-01T03:16:32.085Z,1021.98
2017-06-01T03:17:12.602Z,1021.92
2017-06-01T03:17:53.084Z,1021.97
2017-06-01T03:18:33.557Z,1021.99
2017-06-01T03:19:14.058Z,1021.98
2017-06-01T03:19:54.547Z,1021.98
2017-06-01T03:20:35.031Z,1022.01
2017-06-01T03:21:15.534Z,1021.97
2017-06-01T03:21:56.034Z,1022.07
2017-06-01T03:22:36.524Z,1021.97
2017-06-01T03:23:17.015Z,1021.98
2017-06-01T03:23:57.526Z,1021.96
2017-06-01T03:24:38.046Z,1021.98
2017-06-01T03:25:18.529Z,1022.06
2017-06-01T03:25:59.025Z,1022.02
2017-06-01T03:26:39.503Z,1021.98
2017-06-01T03:27:20.001Z,1021.88
2017-06-01T03:28:00.503Z,1021.98
2017-06-01T03:28:40.988Z,1022.06
2017-06-01T03:29:21.514Z,1021.97
2017-06-01T03:30:02.017Z,1022
2017-06-01T03:30:42.506Z,1021.96
2017-06-01T03:31:22.977Z,1021.96
2017-06-01T03:32:03.465Z,1021.96
2017-06-01T03:32:43.936Z,1021.98
2017-06-01T03:33:24.422Z,1022.01
2017-06-01T03:34:04.877Z,1022.01
2017-06-01T03:34:45.385Z,1021.97
2017-06-01T03:35:25.834Z,1022.01
2017-06-01T03:36:06.311Z,1022.01
2017-06-01T03:36:46.793Z,1022.03
2017-06-01T03:37:27.289Z,1022.02
2017-06-01T03:38:07.800Z,1022.02
2017-06-01T03:38:48.270Z,1022.01
2017-06-01T03:39:28.755Z,1022.01
2017-06-01T03:40:09.236Z,1022.01
2017-06-01T03:40:49.737Z,1021.99
2017-06-01T03:41:30.213Z,1022.03
2017-06-01T03:42:10.676Z,1022.07
2017-06-01T03:42:51.204Z,1022.02
2017-06-01T03:43:31.686Z,1022.11
2017-06-01T03:44:12.177Z,1022.01
2017-06-01T03:44:52.646Z,1022.1
2017-06-01T03:45:33.107Z,1022.01
2017-06-01T03:46:13.590Z,1022.02
2017-06-01T03:46:54.139Z,1022
2017-06-01T03:47:34.621Z,1022.01
2017-06-01T03:48:15.155Z,1022.01
2017-06-01T03:48:55.667Z,1021.99
2017-06-01T03:49:36.159Z,1021.98
2017-06-01T03:50:16.660Z,1021.99
2017-06-01T03:50:57.137Z,1022.14
2017-06-01T03:51:37.633Z,1022.06
2017-06-01T03:52:18.131Z,1022.06
2017-06-01T03:52:58.655Z,1021.97
2017-06-01T03:53:39.105Z,1021.98
2017-06-01T03:54:19.581Z,1022.09
2017-06-01T03:55:00.093Z,1021.98
2017-06-01T03:55:40.596Z,1022.06
2017-06-01T03:56:21.070Z,1022
2017-06-01T03:57:01.550Z,1022
2017-06-01T03:57:42.041Z,1022.01
2017-06-01T03:58:22.536Z,1022
2017-06-01T03:59:03.005Z,1021.99
2017-06-01T03:59:43.467Z,1021.99
2017-06-01T04:00:23.957Z,1022.11
2017-06-01T04:01:04.427Z,1022.18
2017-06-01T04:01:44.916Z,1021.99
2017-06-01T04:02:25.382Z,1022
2017-06-01T04:03:05.853Z,1022.1
2017-06-01T04:03:46.338Z,1022.06
2017-06-01T04:05:44.473Z,1022.13
2017-06-01T04:06:24.922Z,1022.1
2017-06-01T04:07:05.405Z,1022.09
2017-06-01T04:07:46.011Z,1022.13
2017-06-01T04:08:26.437Z,1022.18
2017-06-01T04:09:06.946Z,1022.1
2017-06-01T04:09:47.427Z,1022.13
2017-06-01T04:10:27.907Z,1022.16
2017-06-01T04:11:08.417Z,1022.12
2017-06-01T04:11:48.930Z,1022.11
2017-06-01T04:12:29.428Z,1022.12
2017-06-01T04:13:09.876Z,1022.17
2017-06-01T04:13:50.348Z,1022.12
2017-06-01T04:14:30.812Z,1022.19
2017-06-01T04:15:11.394Z,1022.09
2017-06-01T04:15:51.833Z,1022.16
2017-06-01T04:16:32.297Z,1022.09
2017-06-01T04:17:12.782Z,1022.13
2017-06-01T04:17:53.280Z,1022.09
2017-06-01T04:18:33.763Z,1022.15
2017-06-01T04:19:14.226Z,1022.11
2017-06-01T04:19:54.733Z,1022.1
2017-06-01T04:20:35.207Z,1022.13
2017-06-01T04:21:15.698Z,1022.16
2017-06-01T04:21:56.207Z,1022.12
2017-06-01T04:22:36.709Z,1022.09
2017-06-01T04:23:17.231Z,1022.13
2017-06-01T04:23:57.877Z,1022.18
2017-06-01T04:24:38.396Z,1022.16
2017-06-01T04:25:18.901Z,1022.22
2017-06-01T04:25:59.434Z,1022.23
2017-06-01T04:26:39.897Z,1022.21
2017-06-01T04:27:20.450Z,1022.23
2017-06-01T04:28:00.931Z,1022.21
2017-06-01T04:28:41.487Z,1022.17
2017-06-01T04:29:22.334Z,1022.16
2017-06-01T04:30:02.934Z,1022.13
2017-06-01T04:30:43.405Z,1022.1
2017-06-01T04:31:23.958Z,1022.12
2017-06-01T04:32:04.454Z,1022.22
2017-06-01T04:32:44.967Z,1022.28
2017-06-01T04:33:25.436Z,1022.25
2017-06-01T04:34:06.010Z,1022.2
2017-06-01T04:34:46.540Z,1022.27
2017-06-01T04:35:26.998Z,1022.23
2017-06-01T04:36:07.467Z,1022.28
2017-06-01T04:36:47.984Z,1022.22
2017-06-01T04:37:28.446Z,1022.38
2017-06-01T04:38:09.321Z,1022.27
2017-06-01T04:38:49.831Z,1022.22
2017-06-01T04:39:30.322Z,1022.24
2017-06-01T04:40:10.815Z,1022.21
2017-06-01T04:40:51.300Z,1022.23
2017-06-01T04:41:31.790Z,1022.24
2017-06-01T04:42:12.257Z,1022.26
2017-06-01T04:42:52.800Z,1022.25
2017-06-01T04:43:33.305Z,1022.25
2017-06-01T04:44:13.841Z,1022.28
2017-06-01T04:44:54.347Z,1022.25
2017-06-01T04:45:34.839Z,1022.34
2017-06-01T04:46:15.322Z,1022.28
2017-06-01T04:46:55.793Z,1022.26
2017-06-01T04:47:36.297Z,1022.3
2017-06-01T04:48:16.805Z,1022.28
2017-06-01T04:48:57.321Z,1022.15
2017-06-01T04:49:37.955Z,1022.2
2017-06-01T04:50:18.586Z,1022.18
2017-06-01T04:50:59.270Z,1022.19
2017-06-01T04:51:39.904Z,1022.19
2017-06-01T04:52:20.538Z,1022.2
2017-06-01T04:53:01.196Z,1022.23
2017-06-01T04:53:41.837Z,1022.24
2017-06-01T04:54:22.291Z,1022.2
2017-06-01T04:55:02.862Z,1022.19
2017-06-01T04:55:43.522Z,1022.24
2017-06-01T04:56:24.109Z,1022.26
2017-06-01T04:57:04.590Z,1022.2
2017-06-01T04:57:45.121Z,1022.17
2017-06-01T04:58:25.858Z,1022.23
2017-06-01T04:59:06.362Z,1022.22
2017-06-01T04:59:46.937Z,1022.19
2017-06-01T05:00:27.426Z,1022.17
2017-06-01T05:01:07.926Z,1022.2
2017-06-01T05:01:48.416Z,1022.17
2017-06-01T05:02:28.891Z,1022.15
2017-06-01T05:03:09.415Z,1022.21
2017-06-01T05:03:49.864Z,1022.18
2017-06-01T05:04:30.359Z,1022.29
2017-06-01T05:05:10.854Z,1022.3
2017-06-01T05:05:51.445Z,1022.3
2017-06-01T05:06:31.964Z,1022.31
2017-06-01T05:07:12.455Z,1022.29
2017-06-01T05:07:52.940Z,1022.22
2017-06-01T05:08:33.436Z,1022.26
2017-06-01T05:09:13.917Z,1022.22
2017-06-01T05:11:32.201Z,1022.26
2017-06-01T05:12:12.677Z,1022.39
2017-06-01T05:12:53.178Z,1022.32
2017-06-01T05:13:33.669Z,1022.34
2017-06-01T05:14:14.163Z,1022.32
2017-06-01T05:14:54.626Z,1022.34
2017-06-01T05:15:35.118Z,1022.31
2017-06-01T05:16:15.613Z,1022.42
2017-06-01T05:16:56.095Z,1022.34
2017-06-01T05:17:36.590Z,1022.43
2017-06-01T05:18:17.046Z,1022.35
2017-06-01T05:18:57.544Z,1022.42
2017-06-01T05:19:38.053Z,1022.45
2017-06-01T05:20:18.546Z,1022.41
2017-06-01T05:20:59.055Z,1022.43
2017-06-01T05:21:39.533Z,1022.47
2017-06-01T05:22:20.006Z,1022.43
2017-06-01T05:23:00.495Z,1022.41
2017-06-01T05:23:40.990Z,1022.46
2017-06-01T05:24:21.505Z,1022.38
2017-06-01T05:25:01.977Z,1022.44
2017-06-01T05:25:42.477Z,1022.35
2017-06-01T05:26:22.950Z,1022.45
2017-06-01T05:27:03.414Z,1022.39
2017-06-01T05:27:43.897Z,1022.38
2017-06-01T05:28:24.391Z,1022.37
2017-06-01T05:29:04.870Z,1022.46
2017-06-01T05:29:45.345Z,1022.39
2017-06-01T05:30:25.839Z,1022.51
2017-06-01T05:31:06.322Z,1022.44
2017-06-01T05:31:46.784Z,1022.38
2017-06-01T05:32:27.279Z,1022.41
2017-06-01T05:33:07.797Z,1022.41
2017-06-01T05:33:48.266Z,1022.48
2017-06-01T05:34:28.752Z,1022.49
2017-06-01T05:35:09.259Z,1022.46
2017-06-01T05:35:49.756Z,1022.42
2017-06-01T05:36:30.262Z,1022.42
2017-06-01T05:37:10.776Z,1022.44
2017-06-01T05:37:51.225Z,1022.44
2017-06-01T05:38:31.689Z,1022.45
2017-06-01T05:39:12.231Z,1022.45
2017-06-01T05:39:52.680Z,1022.38
2017-06-01T05:40:33.141Z,1022.48
2017-06-01T05:41:13.615Z,1022.41
2017-06-01T05:41:54.139Z,1022.44
2017-06-01T05:42:34.600Z,1022.51
2017-06-01T05:43:15.068Z,1022.46
2017-06-01T05:43:55.537Z,1022.53
2017-06-01T05:44:36.066Z,1022.47
2017-06-01T05:45:16.586Z,1022.51
2017-06-01T05:45:57.068Z,1022.53
2017-06-01T05:46:37.611Z,1022.57
2017-06-01T05:47:18.073Z,1022.52
2017-06-01T05:47:58.554Z,1022.55
2017-06-01T05:48:39.090Z,1022.66
2017-06-01T05:49:19.654Z,1022.6
2017-06-01T05:50:00.142Z,1022.52
2017-06-01T05:50:40.651Z,1022.51
2017-06-01T05:51:21.100Z,1022.57
2017-06-01T05:52:01.605Z,1022.55
2017-06-01T05:52:42.053Z,1022.57
2017-06-01T05:53:22.566Z,1022.59
2017-06-01T05:54:03.062Z,1022.55
2017-06-01T05:54:43.567Z,1022.54
2017-06-01T05:55:24.116Z,1022.55
2017-06-01T05:56:04.639Z,1022.54
2017-06-01T05:56:45.223Z,1022.53
2017-06-01T05:57:25.716Z,1022.59
2017-06-01T05:58:06.224Z,1022.7
2017-06-01T05:58:46.723Z,1022.76
2017-06-01T05:59:27.224Z,1022.62
2017-06-01T06:00:07.701Z,1022.61
2017-06-01T06:00:48.209Z,1022.62
2017-06-01T06:01:28.714Z,1022.68
2017-06-01T06:02:09.217Z,1022.64
2017-06-01T06:02:49.752Z,1022.64
2017-06-01T06:03:30.231Z,1022.65
2017-06-01T06:04:10.717Z,1022.68
2017-06-01T06:04:51.192Z,1022.73
2017-06-01T06:05:31.638Z,1022.78
2017-06-01T06:06:12.211Z,1022.79
2017-06-01T06:06:52.736Z,1022.71
2017-06-01T06:07:33.251Z,1022.77
2017-06-01T06:08:13.734Z,1022.67
2017-06-01T06:08:54.241Z,1022.74
2017-06-01T06:09:34.749Z,1022.69
2017-06-01T06:10:15.228Z,1022.74
2017-06-01T06:10:55.684Z,1022.7
2017-06-01T06:11:36.289Z,1022.8
2017-06-01T06:12:16.777Z,1022.75
2017-06-01T06:12:57.281Z,1022.73
2017-06-01T06:13:37.747Z,1022.74
2017-06-01T06:14:18.244Z,1022.74
2017-06-01T06:14:58.711Z,1022.71
2017-06-01T06:15:39.223Z,1022.68
2017-06-01T06:16:19.693Z,1022.82
2017-06-01T06:17:00.275Z,1022.77
2017-06-01T06:17:40.801Z,1022.78
2017-06-01T06:18:21.272Z,1022.78
2017-06-01T06:19:01.838Z,1022.72
2017-06-01T06:19:42.309Z,1022.79
2017-06-01T06:20:22.827Z,1022.73
2017-06-01T06:21:03.355Z,1022.79
2017-06-01T06:21:43.825Z,1022.78
2017-06-01T06:22:24.282Z,1022.8
2017-06-01T06:23:04.782Z,1022.72
2017-06-01T06:23:45.248Z,1022.79
2017-06-01T06:24:25.771Z,1022.78
2017-06-01T06:25:06.264Z,1022.95
2017-06-01T06:25:46.920Z,1022.79
2017-06-01T06:26:27.501Z,1022.76
2017-06-01T06:27:08.256Z,1022.76
2017-06-01T06:27:49.002Z,1022.78
2017-06-01T06:28:29.808Z,1022.78
2017-06-01T06:29:10.464Z,1022.87
2017-06-01T06:29:50.930Z,1022.84
2017-06-01T06:30:31.426Z,1022.69
2017-06-01T06:31:11.973Z,1022.73
2017-06-01T06:31:52.496Z,1022.73
2017-06-01T06:32:32.937Z,1022.75
2017-06-01T06:33:13.417Z,1022.75
2017-06-01T06:33:53.881Z,1022.68
2017-06-01T06:34:34.374Z,1022.79
2017-06-01T06:35:14.889Z,1022.72
2017-06-01T06:35:55.338Z,1022.76
2017-06-01T06:36:35.849Z,1022.74
2017-06-01T06:37:16.341Z,1022.78
2017-06-01T06:37:56.871Z,1022.79
2017-06-01T06:38:37.350Z,1022.77
2017-06-01T06:39:17.875Z,1022.94
2017-06-01T06:39:58.353Z,1022.82
2017-06-01T06:40:38.799Z,1022.83
2017-06-01T06:41:19.296Z,1022.98
2017-06-01T06:41:59.809Z,1022.85
2017-06-01T06:42:40.294Z,1022.85
2017-06-01T06:43:20.785Z,1022.85
2017-06-01T06:44:01.295Z,1022.92
2017-06-01T06:44:41.798Z,1022.88
2017-06-01T06:45:22.251Z,1022.87
2017-06-01T06:46:02.765Z,1022.82
2017-06-01T06:46:43.268Z,1022.82
2017-06-01T06:47:23.738Z,1022.86
2017-06-01T06:48:04.256Z,1022.83
2017-06-01T06:48:44.726Z,1022.88
2017-06-01T06:49:25.215Z,1022.87
2017-06-01T06:50:05.745Z,1022.9
2017-06-01T06:50:46.314Z,1022.81
2017-06-01T06:51:26.889Z,1022.82
2017-06-01T06:52:07.371Z,1022.95
2017-06-01T06:52:47.913Z,1022.87
2017-06-01T06:53:28.369Z,1022.92
2017-06-01T06:54:09.018Z,1022.92
2017-06-01T06:54:49.657Z,1022.99
2017-06-01T06:55:30.227Z,1022.9
2017-06-01T06:56:10.766Z,1022.83
2017-06-01T06:56:51.228Z,1022.94
2017-06-01T06:57:31.916Z,1022.87
2017-06-01T06:58:12.353Z,1022.96
2017-06-01T06:58:52.958Z,1022.89
2017-06-01T06:59:33.487Z,1022.97
2017-06-01T07:00:14.053Z,1022.91
2017-06-01T07:00:54.595Z,1022.91
2017-06-01T07:01:35.307Z,1022.97
2017-06-01T07:02:15.901Z,1022.9
2017-06-01T07:02:56.386Z,1022.92
2017-06-01T07:03:36.963Z,1022.9
2017-06-01T07:04:17.550Z,1022.94
2017-06-01T07:04:58.221Z,1022.91
2017-06-01T07:05:38.953Z,1022.96
2017-06-01T07:06:19.881Z,1022.93
2017-06-01T07:07:00.743Z,1022.91
2017-06-01T07:07:41.457Z,1023.05
2017-06-01T07:08:22.490Z,1022.99
2017-06-01T07:09:03.310Z,1023.04
2017-06-01T07:09:44.056Z,1022.94
2017-06-01T07:10:25.243Z,1022.97
2017-06-01T07:11:05.917Z,1023
2017-06-01T07:11:46.529Z,1022.98
2017-06-01T07:12:27.299Z,1022.92
2017-06-01T07:13:07.881Z,1022.92
2017-06-01T07:13:48.359Z,1023.04
2017-06-01T07:14:28.843Z,1022.94
2017-06-01T07:15:09.571Z,1022.97
2017-06-01T07:15:57.459Z,1022.97
2017-06-01T07:16:49.026Z,1022.99
2017-06-01T07:19:36.820Z,1023
2017-06-01T07:20:19.561Z,1023.09
2017-06-01T07:22:24.926Z,1023.12
2017-06-01T07:23:08.993Z,1023.1
2017-06-01T07:26:51.536Z,1023.04
2017-06-01T07:27:40.075Z,1023.08
2017-06-01T07:28:25.773Z,1023.12
2017-06-01T07:29:07.129Z,1023.1
2017-06-01T07:29:48.199Z,1023.05
2017-06-01T07:30:28.840Z,1023.03
2017-06-01T07:31:09.498Z,1023
2017-06-01T07:31:49.988Z,1023
2017-06-01T07:32:30.698Z,1023.06
2017-06-01T07:33:11.277Z,1023.03
2017-06-01T07:33:51.753Z,1022.99
2017-06-01T07:34:32.255Z,1023.08
2017-06-01T07:35:12.714Z,1023.04
2017-06-01T07:35:53.225Z,1023.01
2017-06-01T07:36:33.737Z,1023.01
2017-06-01T07:37:14.246Z,1022.98
2017-06-01T07:37:54.751Z,1023.01
2017-06-01T07:38:35.264Z,1022.97
2017-06-01T07:39:15.782Z,1023.02
2017-06-01T07:39:56.314Z,1023.08
2017-06-01T07:40:36.922Z,1023.02
2017-06-01T07:41:17.472Z,1023.02
2017-06-01T07:41:57.995Z,1022.99
2017-06-01T07:44:28.875Z,1023.08
2017-06-01T07:45:09.348Z,1023.18
2017-06-01T07:45:49.832Z,1023.06
2017-06-01T07:46:30.322Z,1023.08
2017-06-01T07:47:10.859Z,1023.16
2017-06-01T07:47:51.404Z,1023.13
2017-06-01T07:48:31.825Z,1023.13
2017-06-01T07:49:12.302Z,1023.02
2017-06-01T07:49:52.802Z,1023.07
2017-06-01T07:50:33.836Z,1023.13
2017-06-01T07:51:14.330Z,1023.13
2017-06-01T07:51:54.833Z,1023.05
2017-06-01T07:52:35.318Z,1023.01
2017-06-01T07:53:15.796Z,1023.01
2017-06-01T07:53:56.300Z,1023.02
2017-06-01T07:54:36.746Z,1023.04
2017-06-01T07:55:17.230Z,1023.07
2017-06-01T07:55:57.706Z,1023.08
2017-06-01T07:56:38.208Z,1023.18
2017-06-01T07:57:18.750Z,1023.08
2017-06-01T07:57:59.239Z,1023.17
2017-06-01T07:58:39.765Z,1023.02
2017-06-01T07:59:20.232Z,1023.06
2017-06-01T08:00:00.710Z,1023.21
2017-06-01T08:00:41.218Z,1023.07
2017-06-01T08:01:21.727Z,1023.05
2017-06-01T08:02:02.223Z,1023.03
2017-06-01T08:02:42.758Z,1023.23
2017-06-01T08:03:23.209Z,1023.16
2017-06-01T08:04:03.688Z,1023.12
2017-06-01T08:04:44.154Z,1023.1
2017-06-01T08:05:34.430Z,1023.19
2017-06-01T08:06:25.304Z,1023.11
2017-06-01T08:07:05.777Z,1023.09
2017-06-01T08:07:46.230Z,1023.01
2017-06-01T08:08:26.777Z,1023.04
2017-06-01T08:09:07.254Z,1023.13
2017-06-01T08:09:47.744Z,1023.21
2017-06-01T08:10:28.227Z,1023.21
2017-06-01T08:11:16.353Z,1023.15
2017-06-01T08:11:59.904Z,1023.18
2017-06-01T08:12:43.925Z,1023.19
2017-06-01T08:13:26.285Z,1023.21
2017-06-01T08:14:06.796Z,1023.21
2017-06-01T08:14:47.263Z,1023.12
2017-06-01T08:15:27.762Z,1023.16
2017-06-01T08:16:08.321Z,1023.09
2017-06-01T08:16:48.884Z,1023.11
2017-06-01T08:17:31.431Z,1023.36
2017-06-01T08:18:11.965Z,1023.25
2017-06-01T08:19:00.627Z,1023.14
2017-06-01T08:19:41.156Z,1023.17
2017-06-01T08:20:21.677Z,1023.13
2017-06-01T08:21:03.152Z,1023.16
2017-06-01T08:21:43.720Z,1023.23
2017-06-01T08:22:24.257Z,1023.14
2017-06-01T08:24:24.339Z,1023.19
2017-06-01T08:25:04.657Z,1023.18
2017-06-01T08:25:45.132Z,1023.26
2017-06-01T08:26:25.619Z,1023.25
2017-06-01T08:27:06.116Z,1023.23
2017-06-01T08:27:47.350Z,1023.21